Terminal Aerodrome Forecast
Issued by NWS Mt. Holly, NJ

Home | Current Version | Previous Version | Text Only | Print | Product List | Glossary On
Versions: 1 2 3 4 5 6 7 8 9 10 11 12 13 14 15 16 17 18 19 20 21
448
FTUS41 KPHI 282336
TAFACY
TAF
KACY 282336Z 2900/2924 09010KT P6SM -SHRA BKN020
     FM290300 08010KT P6SM -SHRA OVC007
     FM290800 06008KT 2SM -SHRA OVC003
     FM291300 16005KT 4SM -SHRA OVC007
     FM291500 22005KT P6SM BKN010=

USA.gov is the U.S. government's official web portal to all federal, state and local government web resources and services.